Time,TemperatureF,DewpointF,PressureIn,WindDirection,WindDirectionDegrees,WindSpeedMPH,WindSpeedGustMPH,Humidity,HourlyPrecipIn,Conditions,Clouds,dailyrainin,SolarRadiationWatts/m^2,SoftwareType,DateUTC
2013-03-24 00:12:00,71.0,63.0,30.02,North,358,7.0,21.0,77,0.00,,,0.00,0.000000,,2013-03-24 10:12:00,
2013-03-24 00:22:00,71.0,63.0,30.02,North,358,7.0,21.0,77,0.00,,,0.00,0.000000,,2013-03-24 10:22:00,
2013-03-24 00:32:00,71.0,63.0,30.02,North,358,7.0,21.0,77,0.00,,,0.00,0.000000,,2013-03-24 10:32:00,
2013-03-24 00:42:00,71.0,63.0,30.02,North,358,7.0,21.0,77,0.00,,,0.00,0.000000,,2013-03-24 10:42:00,
2013-03-24 00:52:00,71.0,63.0,30.02,North,358,7.0,21.0,77,0.00,,,0.00,0.000000,,2013-03-24 10:52:00,
2013-03-24 01:12:00,71.0,64.0,29.99,NNW,333,3.0,14.0,79,0.00,,,0.00,0.000000,,2013-03-24 11:12:00,
2013-03-24 01:22:00,71.0,64.0,29.99,NNW,333,3.0,14.0,79,0.00,,,0.00,0.000000,,2013-03-24 11:22:00,
2013-03-24 01:32:00,71.0,64.0,29.99,NNW,333,3.0,14.0,79,0.00,,,0.00,0.000000,,2013-03-24 11:32:00,
2013-03-24 01:42:00,71.0,64.0,29.99,NNW,333,3.0,14.0,79,0.00,,,0.00,0.000000,,2013-03-24 11:42:00,
2013-03-24 01:51:00,71.0,64.0,29.99,NNW,333,3.0,14.0,79,0.00,,,0.00,0.000000,,2013-03-24 11:51:00,
2013-03-24 02:22:00,71.0,64.0,29.97,NNE,13,11.0,19.0,79,0.00,,,0.00,0.000000,,2013-03-24 12:22:00,
2013-03-24 02:32:00,71.0,64.0,29.97,NNE,13,11.0,19.0,79,0.00,,,0.00,0.000000,,2013-03-24 12:32:00,
2013-03-24 02:42:00,71.0,64.0,29.97,NNE,13,11.0,19.0,79,0.00,,,0.00,0.000000,,2013-03-24 12:42:00,
2013-03-24 02:52:00,71.0,64.0,29.97,NNE,13,11.0,19.0,79,0.00,,,0.00,0.000000,,2013-03-24 12:52:00,
2013-03-24 03:12:00,71.0,63.0,29.96,North,349,9.0,18.0,77,0.00,,,0.00,0.000000,,2013-03-24 13:12:00,
2013-03-24 03:22:00,71.0,63.0,29.96,North,349,9.0,18.0,77,0.00,,,0.00,0.000000,,2013-03-24 13:22:00,
2013-03-24 03:32:00,71.0,63.0,29.96,North,349,9.0,18.0,77,0.00,,,0.00,0.000000,,2013-03-24 13:32:00,
2013-03-24 03:42:00,71.0,63.0,29.96,North,349,9.0,18.0,77,0.00,,,0.00,0.000000,,2013-03-24 13:42:00,
2013-03-24 03:52:00,71.0,63.0,29.96,North,349,9.0,18.0,77,0.00,,,0.00,0.000000,,2013-03-24 13:52:00,
2013-03-24 04:12:00,73.0,64.0,29.97,NNE,18,8.0,14.0,74,0.00,,,0.00,0.000000,,2013-03-24 14:12:00,
2013-03-24 04:22:00,73.0,64.0,29.97,NNE,18,8.0,14.0,74,0.00,,,0.00,0.000000,,2013-03-24 14:22:00,
2013-03-24 04:32:00,73.0,64.0,29.97,NNE,18,8.0,14.0,74,0.00,,,0.00,0.000000,,2013-03-24 14:32:00,
2013-03-24 04:42:00,73.0,64.0,29.97,NNE,18,8.0,14.0,74,0.00,,,0.00,0.000000,,2013-03-24 14:42:00,
2013-03-24 04:51:00,73.0,64.0,29.97,NNE,18,8.0,14.0,74,0.00,,,0.00,0.000000,,2013-03-24 14:51:00,
2013-03-24 05:12:00,73.0,63.0,29.96,North,1,7.0,12.0,70,0.00,,,0.00,0.000000,,2013-03-24 15:12:00,
2013-03-24 05:22:00,73.0,63.0,29.96,North,1,7.0,12.0,70,0.00,,,0.00,0.000000,,2013-03-24 15:22:00,
2013-03-24 05:33:00,73.0,63.0,29.96,North,1,7.0,12.0,70,0.00,,,0.00,0.000000,,2013-03-24 15:33:00,
2013-03-24 05:43:00,73.0,63.0,29.96,North,1,7.0,12.0,70,0.00,,,0.00,0.000000,,2013-03-24 15:43:00,
2013-03-24 05:52:00,73.0,63.0,29.96,North,1,7.0,12.0,70,0.00,,,0.00,0.000000,,2013-03-24 15:52:00,
2013-03-24 06:12:00,71.0,61.0,29.97,NE,44,2.0,9.0,71,0.00,,,0.00,0.000000,,2013-03-24 16:12:00,
2013-03-24 06:22:00,71.0,61.0,29.97,NE,44,2.0,9.0,71,0.00,,,0.00,0.000000,,2013-03-24 16:22:00,
2013-03-24 06:32:00,71.0,61.0,29.97,NE,44,2.0,9.0,71,0.00,,,0.00,0.000000,,2013-03-24 16:32:00,
2013-03-24 06:42:00,71.0,61.0,29.97,NE,44,2.0,9.0,71,0.00,,,0.00,0.000000,,2013-03-24 16:42:00,
2013-03-24 06:52:00,71.0,61.0,29.97,NE,44,2.0,9.0,71,0.00,,,0.00,0.000000,,2013-03-24 16:52:00,
2013-03-24 07:12:00,72.0,62.0,30.00,NE,34,9.0,15.0,70,0.00,,,0.00,2.000000,,2013-03-24 17:12:00,
2013-03-24 07:22:00,72.0,62.0,30.00,NE,34,9.0,15.0,70,0.00,,,0.00,2.000000,,2013-03-24 17:22:00,
2013-03-24 07:32:00,72.0,62.0,30.00,NE,34,9.0,15.0,70,0.00,,,0.00,2.000000,,2013-03-24 17:32:00,
2013-03-24 07:42:00,72.0,62.0,30.00,NE,34,9.0,15.0,70,0.00,,,0.00,2.000000,,2013-03-24 17:42:00,
2013-03-24 07:52:00,72.0,62.0,30.00,NE,34,9.0,15.0,70,0.00,,,0.00,2.000000,,2013-03-24 17:52:00,
2013-03-24 08:22:00,76.0,64.0,30.03,ENE,61,6.0,14.0,67,0.00,,,0.00,86.000000,,2013-03-24 18:22:00,
2013-03-24 08:32:00,76.0,64.0,30.03,ENE,61,6.0,14.0,67,0.00,,,0.00,86.000000,,2013-03-24 18:32:00,
2013-03-24 08:42:00,76.0,64.0,30.03,ENE,61,6.0,14.0,67,0.00,,,0.00,86.000000,,2013-03-24 18:42:00,
2013-03-24 08:52:00,76.0,64.0,30.03,ENE,61,6.0,14.0,67,0.00,,,0.00,86.000000,,2013-03-24 18:52:00,
2013-03-24 09:22:00,77.0,65.0,30.04,ENE,64,11.0,18.0,66,0.00,,,0.00,228.000000,,2013-03-24 19:22:00,
2013-03-24 09:32:00,77.0,65.0,30.04,ENE,64,11.0,18.0,66,0.00,,,0.00,228.000000,,2013-03-24 19:32:00,
2013-03-24 09:42:00,77.0,65.0,30.04,ENE,64,11.0,18.0,66,0.00,,,0.00,228.000000,,2013-03-24 19:42:00,
2013-03-24 09:52:00,77.0,65.0,30.04,ENE,64,11.0,18.0,66,0.00,,,0.00,228.000000,,2013-03-24 19:52:00,
2013-03-24 10:12:00,77.0,63.0,30.05,ENE,72,13.0,21.0,63,0.00,,,0.00,344.000000,,2013-03-24 20:12:00,
2013-03-24 10:22:00,77.0,63.0,30.05,ENE,72,13.0,21.0,63,0.00,,,0.00,344.000000,,2013-03-24 20:22:00,
2013-03-24 10:32:00,77.0,63.0,30.05,ENE,72,13.0,21.0,63,0.00,,,0.00,344.000000,,2013-03-24 20:32:00,
2013-03-24 10:42:00,77.0,63.0,30.05,ENE,72,13.0,21.0,63,0.00,,,0.00,344.000000,,2013-03-24 20:42:00,
2013-03-24 10:52:00,77.0,63.0,30.05,ENE,72,13.0,21.0,63,0.00,,,0.00,344.000000,,2013-03-24 20:52:00,
2013-03-24 11:12:00,77.0,64.0,30.06,ENE,75,16.0,26.0,64,0.00,,,0.00,502.000000,,2013-03-24 21:12:00,
2013-03-24 11:22:00,77.0,64.0,30.06,ENE,75,16.0,26.0,64,0.00,,,0.00,502.000000,,2013-03-24 21:22:00,
2013-03-24 11:32:00,77.0,64.0,30.06,ENE,75,16.0,26.0,64,0.00,,,0.00,502.000000,,2013-03-24 21:32:00,
2013-03-24 11:43:00,77.0,64.0,30.06,ENE,75,16.0,26.0,64,0.00,,,0.00,502.000000,,2013-03-24 21:43:00,
2013-03-24 11:52:00,77.0,64.0,30.06,ENE,75,16.0,26.0,64,0.00,,,0.00,502.000000,,2013-03-24 21:52:00,
2013-03-24 12:22:00,76.0,64.0,30.04,East,90,12.0,25.0,66,0.00,,,0.00,300.000000,,2013-03-24 22:22:00,
2013-03-24 12:33:00,76.0,64.0,30.04,East,90,12.0,25.0,66,0.00,,,0.00,300.000000,,2013-03-24 22:33:00,
2013-03-24 12:42:00,76.0,64.0,30.04,East,90,12.0,25.0,66,0.00,,,0.00,300.000000,,2013-03-24 22:42:00,
2013-03-24 12:52:00,76.0,64.0,30.04,East,90,12.0,25.0,66,0.00,,,0.00,300.000000,,2013-03-24 22:52:00,
2013-03-24 13:12:00,78.0,65.0,30.01,East,99,14.0,22.0,65,0.00,,,0.00,507.000000,,2013-03-24 23:12:00,
2013-03-24 13:22:00,78.0,65.0,30.01,East,99,14.0,22.0,65,0.00,,,0.00,507.000000,,2013-03-24 23:22:00,
2013-03-24 13:32:00,78.0,65.0,30.01,East,99,14.0,22.0,65,0.00,,,0.00,507.000000,,2013-03-24 23:32:00,
2013-03-24 13:42:00,78.0,65.0,30.01,East,99,14.0,22.0,65,0.00,,,0.00,507.000000,,2013-03-24 23:42:00,
2013-03-24 13:52:00,78.0,65.0,30.01,East,99,14.0,22.0,65,0.00,,,0.00,507.000000,,2013-03-24 23:52:00,
2013-03-24 14:22:00,79.0,66.0,29.98,East,92,13.0,20.0,64,0.00,,,0.00,711.000000,,2013-03-25 00:22:00,
2013-03-24 14:32:00,79.0,66.0,29.98,East,92,13.0,20.0,64,0.00,,,0.00,711.000000,,2013-03-25 00:32:00,
2013-03-24 14:42:00,79.0,66.0,29.98,East,92,13.0,20.0,64,0.00,,,0.00,711.000000,,2013-03-25 00:42:00,
2013-03-24 14:52:00,79.0,66.0,29.98,East,92,13.0,20.0,64,0.00,,,0.00,711.000000,,2013-03-25 00:52:00,
2013-03-24 15:12:00,79.0,66.0,29.97,East,98,12.0,19.0,64,0.00,,,0.00,421.000000,,2013-03-25 01:12:00,
2013-03-24 15:22:00,79.0,66.0,29.97,East,98,12.0,19.0,64,0.00,,,0.00,421.000000,,2013-03-25 01:22:00,
2013-03-24 15:32:00,79.0,66.0,29.97,East,98,12.0,19.0,64,0.00,,,0.00,421.000000,,2013-03-25 01:32:00,
2013-03-24 15:42:00,79.0,66.0,29.97,East,98,12.0,19.0,64,0.00,,,0.00,421.000000,,2013-03-25 01:42:00,
2013-03-24 15:52:00,79.0,66.0,29.97,East,98,12.0,19.0,64,0.00,,,0.00,421.000000,,2013-03-25 01:52:00,
2013-03-24 16:22:00,77.0,63.0,29.96,East,79,12.0,20.0,63,0.00,,,0.00,460.000000,,2013-03-25 02:22:00,
2013-03-24 16:32:00,77.0,63.0,29.96,East,79,12.0,20.0,63,0.00,,,0.00,460.000000,,2013-03-25 02:32:00,
2013-03-24 16:42:00,77.0,63.0,29.96,East,79,12.0,20.0,63,0.00,,,0.00,460.000000,,2013-03-25 02:42:00,
2013-03-24 16:51:00,77.0,63.0,29.96,East,79,12.0,20.0,63,0.00,,,0.00,460.000000,,2013-03-25 02:51:00,
2013-03-24 17:12:00,77.0,64.0,29.97,ENE,70,10.0,19.0,65,0.00,,,0.00,150.000000,,2013-03-25 03:12:00,
2013-03-24 17:22:00,77.0,64.0,29.97,ENE,70,10.0,19.0,65,0.00,,,0.00,150.000000,,2013-03-25 03:22:00,
2013-03-24 17:33:00,77.0,64.0,29.97,ENE,70,10.0,19.0,65,0.00,,,0.00,150.000000,,2013-03-25 03:33:00,
2013-03-24 17:42:00,77.0,64.0,29.97,ENE,70,10.0,19.0,65,0.00,,,0.00,150.000000,,2013-03-25 03:42:00,
2013-03-24 17:52:00,77.0,64.0,29.97,ENE,70,10.0,19.0,65,0.00,,,0.00,150.000000,,2013-03-25 03:52:00,
2013-03-24 18:12:00,76.0,61.0,29.98,NE,43,12.0,19.0,60,0.00,,,0.00,196.000000,,2013-03-25 04:12:00,
2013-03-24 18:22:00,76.0,61.0,29.98,NE,43,12.0,19.0,60,0.00,,,0.00,196.000000,,2013-03-25 04:22:00,
2013-03-24 18:32:00,76.0,61.0,29.98,NE,43,12.0,19.0,60,0.00,,,0.00,196.000000,,2013-03-25 04:32:00,
2013-03-24 18:42:00,76.0,61.0,29.98,NE,43,12.0,19.0,60,0.00,,,0.00,196.000000,,2013-03-25 04:42:00,
2013-03-24 18:52:00,76.0,61.0,29.98,NE,43,12.0,19.0,60,0.00,,,0.00,196.000000,,2013-03-25 04:52:00,
2013-03-24 19:12:00,73.0,60.0,29.99,NE,39,9.0,20.0,64,0.00,,,0.00,28.000000,,2013-03-25 05:12:00,
2013-03-24 19:22:00,73.0,60.0,29.99,NE,39,9.0,20.0,64,0.00,,,0.00,28.000000,,2013-03-25 05:22:00,
2013-03-24 19:32:00,73.0,60.0,29.99,NE,39,9.0,20.0,64,0.00,,,0.00,28.000000,,2013-03-25 05:32:00,
2013-03-24 19:42:00,73.0,60.0,29.99,NE,39,9.0,20.0,64,0.00,,,0.00,28.000000,,2013-03-25 05:42:00,
2013-03-24 19:51:00,73.0,60.0,29.99,NE,39,9.0,20.0,64,0.00,,,0.00,28.000000,,2013-03-25 05:51:00,
2013-03-24 20:22:00,73.0,60.0,29.99,NE,38,7.0,16.0,63,0.00,,,0.00,0.000000,,2013-03-25 06:22:00,
2013-03-24 20:32:00,73.0,60.0,29.99,NE,38,7.0,16.0,63,0.00,,,0.00,0.000000,,2013-03-25 06:32:00,
2013-03-24 20:42:00,73.0,60.0,29.99,NE,38,7.0,16.0,63,0.00,,,0.00,0.000000,,2013-03-25 06:42:00,
2013-03-24 20:52:00,73.0,60.0,29.99,NE,38,7.0,16.0,63,0.00,,,0.00,0.000000,,2013-03-25 06:52:00,
2013-03-24 21:22:00,75.0,63.0,30.01,ENE,59,8.0,17.0,66,0.00,,,0.00,0.000000,,2013-03-25 07:22:00,
2013-03-24 21:31:00,75.0,63.0,30.01,ENE,59,8.0,17.0,66,0.00,,,0.00,0.000000,,2013-03-25 07:31:00,
2013-03-24 21:42:00,75.0,63.0,30.01,ENE,59,8.0,17.0,66,0.00,,,0.00,0.000000,,2013-03-25 07:42:00,
2013-03-24 21:52:00,75.0,63.0,30.01,ENE,59,8.0,17.0,66,0.00,,,0.00,0.000000,,2013-03-25 07:52:00,
2013-03-24 22:12:00,75.0,63.0,30.02,ENE,65,12.0,21.0,67,0.00,,,0.00,0.000000,,2013-03-25 08:12:00,
2013-03-24 22:22:00,75.0,63.0,30.02,ENE,65,12.0,21.0,67,0.00,,,0.00,0.000000,,2013-03-25 08:22:00,
2013-03-24 22:32:00,75.0,63.0,30.02,ENE,65,12.0,21.0,67,0.00,,,0.00,0.000000,,2013-03-25 08:32:00,
2013-03-24 22:42:00,75.0,63.0,30.02,ENE,65,12.0,21.0,67,0.00,,,0.00,0.000000,,2013-03-25 08:42:00,
2013-03-24 22:52:00,75.0,63.0,30.02,ENE,65,12.0,21.0,67,0.00,,,0.00,0.000000,,2013-03-25 08:52:00,
2013-03-24 23:12:00,73.0,63.0,30.03,NE,44,10.0,24.0,70,0.00,,,0.00,0.000000,,2013-03-25 09:12:00,
2013-03-24 23:22:00,73.0,63.0,30.03,NE,44,10.0,24.0,70,0.00,,,0.00,0.000000,,2013-03-25 09:22:00,
2013-03-24 23:32:00,73.0,63.0,30.03,NE,44,10.0,24.0,70,0.00,,,0.00,0.000000,,2013-03-25 09:32:00,
2013-03-24 23:42:00,73.0,63.0,30.03,NE,44,10.0,24.0,70,0.00,,,0.00,0.000000,,2013-03-25 09:42:00,
2013-03-24 23:52:00,73.0,63.0,30.03,NE,44,10.0,24.0,70,0.00,,,0.00,0.000000,,2013-03-25 09:52:00,